createdAt,value
2022-12-19T16:48:40.512Z,23.89
2022-12-19T16:49:40.475Z,24.35
2022-12-19T16:50:40.436Z,24.63
2022-12-19T16:51:40.437Z,24.87
2022-12-19T16:52:42.665Z,25.07
2022-12-19T16:53:40.484Z,25.22
2022-12-19T16:54:40.445Z,25.35
2022-12-19T16:55:40.461Z,25.41
2022-12-19T16:56:40.432Z,25.50
2022-12-19T16:57:40.436Z,25.49
2022-12-19T16:58:43.299Z,25.58
2022-12-19T16:59:40.478Z,25.52
2022-12-19T17:00:40.418Z,25.59
2022-12-19T17:01:40.614Z,25.56
2022-12-19T17:02:40.628Z,25.63
2022-12-19T17:03:40.437Z,25.60
2022-12-19T17:04:42.675Z,25.68
2022-12-19T17:05:40.410Z,25.62
2022-12-19T17:06:40.402Z,25.63
2022-12-19T17:07:40.384Z,25.62
2022-12-19T17:08:40.425Z,25.63
2022-12-19T17:09:40.380Z,25.63
2022-12-19T17:10:40.380Z,25.69
2022-12-19T17:11:40.366Z,25.70
2022-12-19T17:12:40.342Z,25.69
2022-12-19T17:13:40.361Z,25.65
2022-12-19T17:14:40.319Z,25.63
2022-12-19T17:15:40.323Z,25.63
2022-12-19T17:16:40.316Z,25.68
2022-12-19T17:17:40.306Z,25.69
2022-12-19T17:18:40.339Z,25.66
2022-12-19T17:19:40.288Z,25.66
2022-12-19T17:20:40.270Z,25.68
2022-12-19T17:21:40.271Z,25.66
2022-12-19T17:22:40.246Z,25.70
2022-12-19T17:23:40.262Z,25.68
2022-12-19T17:24:40.247Z,25.69
2022-12-19T17:25:40.225Z,25.70
2022-12-19T17:26:40.232Z,25.69
2022-12-19T17:27:40.215Z,25.63
2022-12-19T17:28:40.221Z,25.73
2022-12-19T17:29:40.198Z,25.70
2022-12-19T17:30:40.239Z,25.68
2022-12-19T17:31:40.325Z,25.65
2022-12-19T17:32:40.221Z,25.60
2022-12-19T17:33:40.171Z,25.58
2022-12-19T17:34:40.132Z,25.60
2022-12-19T17:35:40.149Z,25.58
2022-12-19T17:36:40.117Z,25.59
2022-12-19T17:37:40.122Z,25.68
2022-12-19T17:38:40.097Z,25.68
2022-12-19T17:39:40.104Z,25.72
2022-12-19T17:40:40.087Z,25.70
2022-12-19T17:41:40.087Z,25.68
2022-12-19T17:42:40.065Z,25.65
2022-12-19T21:24:11.343Z,21.34
2022-12-19T21:25:11.838Z,21.50
2022-12-19T21:26:11.247Z,21.10
2022-12-19T21:27:11.549Z,20.41
2022-12-19T21:28:11.156Z,19.81
2022-12-19T21:31:11.126Z,18.34
2022-12-19T21:32:16.761Z,18.16
2022-12-19T21:35:10.935Z,19.20
2022-12-19T21:37:11.425Z,19.65
2022-12-19T21:38:10.719Z,19.88
2022-12-19T21:40:10.615Z,20.15
2022-12-19T21:42:11.961Z,20.41
2022-12-19T21:43:12.248Z,20.61
2022-12-19T21:44:10.374Z,20.57
2022-12-19T21:45:10.359Z,20.64
2022-12-19T21:47:10.253Z,20.68
2022-12-19T21:48:10.172Z,20.67
2022-12-19T22:04:09.013Z,20.82
2022-12-19T22:05:08.851Z,20.81
2022-12-19T22:06:08.841Z,20.86
2022-12-19T22:10:08.571Z,20.85
2022-12-19T22:24:07.649Z,20.88
2022-12-19T22:26:07.473Z,20.88
2022-12-19T22:29:07.295Z,20.83
2022-12-19T22:33:06.997Z,20.88
2022-12-19T22:51:05.816Z,20.83
2022-12-19T22:53:11.042Z,20.88
2022-12-19T23:07:04.678Z,20.85
2022-12-19T23:08:04.601Z,20.88
2022-12-19T23:10:06.203Z,20.86
2022-12-19T23:11:04.364Z,20.88
2022-12-19T23:12:05.224Z,20.81
2022-12-19T23:13:04.203Z,20.83
2022-12-19T23:14:04.209Z,20.88
2022-12-19T23:15:04.109Z,20.86
2022-12-19T23:16:04.001Z,20.82
2022-12-19T23:17:04.070Z,20.82
2022-12-19T23:18:04.205Z,20.91
2022-12-19T23:19:04.223Z,20.86
2022-12-19T23:20:03.708Z,20.83
2022-12-19T23:21:03.650Z,20.85
2022-12-19T23:22:04.540Z,20.83
2022-12-19T23:23:03.545Z,20.82
2022-12-19T23:24:03.464Z,20.82
2022-12-19T23:25:03.353Z,20.82
2022-12-19T23:26:11.306Z,20.79
2022-12-19T23:27:05.738Z,20.78
2022-12-19T23:30:04.705Z,20.75
2022-12-19T23:31:04.709Z,20.74
2022-12-19T23:32:04.779Z,20.78
2022-12-19T23:45:03.172Z,20.75
